sensor_id;sensor_type;location;lat;lon;timestamp;P1;durP1;ratioP1;P2;durP2;ratioP2
30096;SDS011;16915;51.466;3.610;2023-02-07T00:00:49;26.58;;;11.05;;
30096;SDS011;16915;51.466;3.610;2023-02-07T00:03:15;31.67;;;10.30;;
30096;SDS011;16915;51.466;3.610;2023-02-07T00:05:40;30.92;;;11.10;;
30096;SDS011;16915;51.466;3.610;2023-02-07T00:08:06;25.55;;;10.52;;
30096;SDS011;16915;51.466;3.610;2023-02-07T00:10:32;25.95;;;9.88;;
30096;SDS011;16915;51.466;3.610;2023-02-07T00:12:59;21.50;;;9.63;;
30096;SDS011;16915;51.466;3.610;2023-02-07T00:15:25;20.80;;;9.07;;
30096;SDS011;16915;51.466;3.610;2023-02-07T00:17:51;17.10;;;9.00;;
30096;SDS011;16915;51.466;3.610;2023-02-07T00:20:17;18.88;;;8.80;;
30096;SDS011;16915;51.466;3.610;2023-02-07T00:22:43;18.25;;;8.40;;
30096;SDS011;16915;51.466;3.610;2023-02-07T00:25:09;16.08;;;7.82;;
30096;SDS011;16915;51.466;3.610;2023-02-07T00:27:34;10.60;;;7.90;;
30096;SDS011;16915;51.466;3.610;2023-02-07T00:30:00;10.48;;;7.32;;
30096;SDS011;16915;51.466;3.610;2023-02-07T00:32:29;14.80;;;7.75;;
30096;SDS011;16915;51.466;3.610;2023-02-07T00:34:55;13.57;;;7.75;;
30096;SDS011;16915;51.466;3.610;2023-02-07T00:37:21;14.77;;;7.43;;
30096;SDS011;16915;51.466;3.610;2023-02-07T00:39:47;14.05;;;7.72;;
30096;SDS011;16915;51.466;3.610;2023-02-07T00:42:12;14.55;;;7.60;;
30096;SDS011;16915;51.466;3.610;2023-02-07T00:44:38;13.80;;;7.88;;
30096;SDS011;16915;51.466;3.610;2023-02-07T00:47:03;18.10;;;7.90;;
30096;SDS011;16915;51.466;3.610;2023-02-07T00:49:29;13.75;;;8.38;;
30096;SDS011;16915;51.466;3.610;2023-02-07T00:51:54;19.02;;;8.05;;
30096;SDS011;16915;51.466;3.610;2023-02-07T00:54:20;14.73;;;8.50;;
30096;SDS011;16915;51.466;3.610;2023-02-07T00:56:46;12.52;;;8.88;;
30096;SDS011;16915;51.466;3.610;2023-02-07T00:59:11;20.25;;;9.60;;
30096;SDS011;16915;51.466;3.610;2023-02-07T01:01:37;22.20;;;9.32;;
30096;SDS011;16915;51.466;3.610;2023-02-07T01:04:02;21.83;;;8.43;;
30096;SDS011;16915;51.466;3.610;2023-02-07T01:06:28;19.85;;;8.85;;
30096;SDS011;16915;51.466;3.610;2023-02-07T01:08:57;24.50;;;9.05;;
30096;SDS011;16915;51.466;3.610;2023-02-07T01:11:24;23.65;;;10.07;;
30096;SDS011;16915;51.466;3.610;2023-02-07T01:13:50;19.30;;;9.32;;
30096;SDS011;16915;51.466;3.610;2023-02-07T01:16:17;20.13;;;9.68;;
30096;SDS011;16915;51.466;3.610;2023-02-07T01:18:44;24.17;;;9.68;;
30096;SDS011;16915;51.466;3.610;2023-02-07T01:21:17;24.17;;;9.68;;
30096;SDS011;16915;51.466;3.610;2023-02-07T01:23:45;20.35;;;8.65;;
30096;SDS011;16915;51.466;3.610;2023-02-07T01:26:10;22.17;;;9.48;;
30096;SDS011;16915;51.466;3.610;2023-02-07T01:28:36;19.10;;;9.35;;
30096;SDS011;16915;51.466;3.610;2023-02-07T01:31:05;17.25;;;8.63;;
30096;SDS011;16915;51.466;3.610;2023-02-07T01:33:32;25.13;;;8.88;;
30096;SDS011;16915;51.466;3.610;2023-02-07T01:35:58;19.00;;;9.23;;
30096;SDS011;16915;51.466;3.610;2023-02-07T01:38:24;21.67;;;8.85;;
30096;SDS011;16915;51.466;3.610;2023-02-07T01:40:49;29.33;;;8.73;;
30096;SDS011;16915;51.466;3.610;2023-02-07T01:43:19;26.70;;;8.98;;
30096;SDS011;16915;51.466;3.610;2023-02-07T01:45:47;25.40;;;8.80;;
30096;SDS011;16915;51.466;3.610;2023-02-07T01:48:14;23.58;;;8.27;;
30096;SDS011;16915;51.466;3.610;2023-02-07T01:50:46;24.48;;;9.45;;
30096;SDS011;16915;51.466;3.610;2023-02-07T01:53:13;26.63;;;8.38;;
30096;SDS011;16915;51.466;3.610;2023-02-07T01:55:41;17.15;;;7.75;;
30096;SDS011;16915;51.466;3.610;2023-02-07T01:58:09;20.00;;;7.68;;
30096;SDS011;16915;51.466;3.610;2023-02-07T02:00:35;21.45;;;7.90;;
30096;SDS011;16915;51.466;3.610;2023-02-07T02:03:01;18.85;;;7.63;;
30096;SDS011;16915;51.466;3.610;2023-02-07T02:05:29;26.20;;;7.47;;
30096;SDS011;16915;51.466;3.610;2023-02-07T02:07:56;21.60;;;7.43;;
30096;SDS011;16915;51.466;3.610;2023-02-07T02:10:22;13.80;;;7.03;;
30096;SDS011;16915;51.466;3.610;2023-02-07T02:20:55;15.93;;;6.93;;
30096;SDS011;16915;51.466;3.610;2023-02-07T02:36:57;17.17;;;6.97;;
30096;SDS011;16915;51.466;3.610;2023-02-07T02:42:00;16.65;;;6.47;;
30096;SDS011;16915;51.466;3.610;2023-02-07T02:44:47;19.38;;;6.90;;
30096;SDS011;16915;51.466;3.610;2023-02-07T02:47:21;13.20;;;5.82;;
30096;SDS011;16915;51.466;3.610;2023-02-07T02:49:48;18.85;;;6.03;;
30096;SDS011;16915;51.466;3.610;2023-02-07T02:52:14;13.85;;;5.70;;
30096;SDS011;16915;51.466;3.610;2023-02-07T02:54:40;13.40;;;6.15;;
30096;SDS011;16915;51.466;3.610;2023-02-07T03:03:48;10.98;;;5.55;;
30096;SDS011;16915;51.466;3.610;2023-02-07T03:06:36;14.57;;;5.80;;
30096;SDS011;16915;51.466;3.610;2023-02-07T03:11:50;13.80;;;5.68;;
30096;SDS011;16915;51.466;3.610;2023-02-07T03:17:03;20.73;;;5.22;;
30096;SDS011;16915;51.466;3.610;2023-02-07T03:19:48;14.35;;;4.90;;
30096;SDS011;16915;51.466;3.610;2023-02-07T03:22:21;16.88;;;5.50;;
30096;SDS011;16915;51.466;3.610;2023-02-07T03:24:50;15.75;;;5.70;;
30096;SDS011;16915;51.466;3.610;2023-02-07T03:27:19;16.95;;;5.72;;
30096;SDS011;16915;51.466;3.610;2023-02-07T03:29:47;19.75;;;5.10;;
30096;SDS011;16915;51.466;3.610;2023-02-07T03:32:21;18.95;;;4.68;;
30096;SDS011;16915;51.466;3.610;2023-02-07T03:34:52;18.42;;;5.15;;
30096;SDS011;16915;51.466;3.610;2023-02-07T03:37:43;24.17;;;5.38;;
30096;SDS011;16915;51.466;3.610;2023-02-07T03:40:13;16.15;;;5.45;;
30096;SDS011;16915;51.466;3.610;2023-02-07T03:42:48;17.80;;;6.03;;
30096;SDS011;16915;51.466;3.610;2023-02-07T03:45:21;26.52;;;5.40;;
30096;SDS011;16915;51.466;3.610;2023-02-07T03:47:47;14.40;;;5.57;;
30096;SDS011;16915;51.466;3.610;2023-02-07T03:50:13;18.33;;;5.50;;
30096;SDS011;16915;51.466;3.610;2023-02-07T03:52:39;15.90;;;5.63;;
30096;SDS011;16915;51.466;3.610;2023-02-07T03:55:05;11.35;;;5.35;;
30096;SDS011;16915;51.466;3.610;2023-02-07T03:57:31;18.85;;;5.20;;
30096;SDS011;16915;51.466;3.610;2023-02-07T03:59:57;12.88;;;5.10;;
30096;SDS011;16915;51.466;3.610;2023-02-07T04:02:22;8.48;;;4.72;;
30096;SDS011;16915;51.466;3.610;2023-02-07T04:04:48;9.38;;;4.53;;
30096;SDS011;16915;51.466;3.610;2023-02-07T04:07:13;12.55;;;5.38;;
30096;SDS011;16915;51.466;3.610;2023-02-07T04:09:39;15.10;;;5.20;;
30096;SDS011;16915;51.466;3.610;2023-02-07T04:12:05;12.80;;;5.53;;
30096;SDS011;16915;51.466;3.610;2023-02-07T04:14:31;12.43;;;5.50;;
30096;SDS011;16915;51.466;3.610;2023-02-07T04:16:56;16.48;;;5.65;;
30096;SDS011;16915;51.466;3.610;2023-02-07T04:19:22;17.67;;;5.65;;
30096;SDS011;16915;51.466;3.610;2023-02-07T04:21:47;15.10;;;5.15;;
30096;SDS011;16915;51.466;3.610;2023-02-07T04:24:13;9.38;;;5.30;;
30096;SDS011;16915;51.466;3.610;2023-02-07T04:26:39;14.13;;;6.00;;
30096;SDS011;16915;51.466;3.610;2023-02-07T04:29:04;18.95;;;6.05;;
30096;SDS011;16915;51.466;3.610;2023-02-07T04:31:30;17.23;;;6.07;;
30096;SDS011;16915;51.466;3.610;2023-02-07T04:33:55;18.10;;;6.45;;
30096;SDS011;16915;51.466;3.610;2023-02-07T04:36:21;20.05;;;5.95;;
30096;SDS011;16915;51.466;3.610;2023-02-07T04:38:47;23.65;;;6.28;;
30096;SDS011;16915;51.466;3.610;2023-02-07T04:41:12;15.52;;;6.05;;
30096;SDS011;16915;51.466;3.610;2023-02-07T04:43:38;11.45;;;6.30;;
30096;SDS011;16915;51.466;3.610;2023-02-07T04:46:04;15.95;;;5.80;;
30096;SDS011;16915;51.466;3.610;2023-02-07T04:48:31;17.75;;;6.90;;
30096;SDS011;16915;51.466;3.610;2023-02-07T04:50:57;20.33;;;6.03;;
30096;SDS011;16915;51.466;3.610;2023-02-07T04:53:22;20.00;;;6.00;;
30096;SDS011;16915;51.466;3.610;2023-02-07T04:55:52;21.15;;;6.47;;
30096;SDS011;16915;51.466;3.610;2023-02-07T04:58:19;17.38;;;5.50;;
30096;SDS011;16915;51.466;3.610;2023-02-07T05:00:45;24.30;;;7.35;;
30096;SDS011;16915;51.466;3.610;2023-02-07T05:03:11;25.65;;;7.65;;
30096;SDS011;16915;51.466;3.610;2023-02-07T05:05:40;21.75;;;7.45;;
30096;SDS011;16915;51.466;3.610;2023-02-07T05:08:07;24.42;;;8.10;;
30096;SDS011;16915;51.466;3.610;2023-02-07T05:10:33;19.88;;;6.28;;
30096;SDS011;16915;51.466;3.610;2023-02-07T05:12:59;20.55;;;6.88;;
30096;SDS011;16915;51.466;3.610;2023-02-07T05:15:25;19.63;;;7.03;;
30096;SDS011;16915;51.466;3.610;2023-02-07T05:17:51;19.45;;;7.35;;
30096;SDS011;16915;51.466;3.610;2023-02-07T05:20:17;29.90;;;8.07;;
30096;SDS011;16915;51.466;3.610;2023-02-07T05:22:43;19.02;;;7.57;;
30096;SDS011;16915;51.466;3.610;2023-02-07T05:25:08;20.88;;;7.70;;
30096;SDS011;16915;51.466;3.610;2023-02-07T05:27:34;35.22;;;8.18;;
30096;SDS011;16915;51.466;3.610;2023-02-07T05:30:00;32.20;;;9.23;;
30096;SDS011;16915;51.466;3.610;2023-02-07T05:32:26;20.25;;;8.25;;
30096;SDS011;16915;51.466;3.610;2023-02-07T05:35:10;31.90;;;7.70;;
30096;SDS011;16915;51.466;3.610;2023-02-07T05:37:36;22.67;;;8.05;;
30096;SDS011;16915;51.466;3.610;2023-02-07T05:40:01;21.40;;;8.20;;
30096;SDS011;16915;51.466;3.610;2023-02-07T05:42:27;16.70;;;8.55;;
30096;SDS011;16915;51.466;3.610;2023-02-07T05:44:53;25.10;;;8.40;;
30096;SDS011;16915;51.466;3.610;2023-02-07T05:47:18;23.75;;;8.05;;
30096;SDS011;16915;51.466;3.610;2023-02-07T05:49:44;26.33;;;8.55;;
30096;SDS011;16915;51.466;3.610;2023-02-07T05:52:09;24.70;;;8.63;;
30096;SDS011;16915;51.466;3.610;2023-02-07T05:54:35;27.63;;;9.00;;
30096;SDS011;16915;51.466;3.610;2023-02-07T05:57:00;25.05;;;8.32;;
30096;SDS011;16915;51.466;3.610;2023-02-07T05:59:26;22.92;;;8.18;;
30096;SDS011;16915;51.466;3.610;2023-02-07T06:01:51;30.70;;;9.02;;
30096;SDS011;16915;51.466;3.610;2023-02-07T06:04:17;24.10;;;9.15;;
30096;SDS011;16915;51.466;3.610;2023-02-07T06:06:42;28.75;;;9.55;;
30096;SDS011;16915;51.466;3.610;2023-02-07T06:09:08;31.85;;;10.52;;
30096;SDS011;16915;51.466;3.610;2023-02-07T06:11:34;29.58;;;10.40;;
30096;SDS011;16915;51.466;3.610;2023-02-07T06:13:59;27.80;;;10.38;;
30096;SDS011;16915;51.466;3.610;2023-02-07T06:16:25;38.30;;;10.82;;
30096;SDS011;16915;51.466;3.610;2023-02-07T06:18:50;29.95;;;9.75;;
30096;SDS011;16915;51.466;3.610;2023-02-07T06:21:16;30.27;;;9.55;;
30096;SDS011;16915;51.466;3.610;2023-02-07T06:23:41;25.58;;;10.35;;
30096;SDS011;16915;51.466;3.610;2023-02-07T06:26:07;26.00;;;11.13;;
30096;SDS011;16915;51.466;3.610;2023-02-07T06:28:33;29.80;;;11.30;;
30096;SDS011;16915;51.466;3.610;2023-02-07T06:30:58;31.02;;;10.93;;
30096;SDS011;16915;51.466;3.610;2023-02-07T06:33:24;29.58;;;11.85;;
30096;SDS011;16915;51.466;3.610;2023-02-07T06:35:50;27.80;;;11.10;;
30096;SDS011;16915;51.466;3.610;2023-02-07T06:38:16;27.25;;;11.18;;
30096;SDS011;16915;51.466;3.610;2023-02-07T06:40:42;28.08;;;10.70;;
30096;SDS011;16915;51.466;3.610;2023-02-07T06:43:08;31.17;;;11.27;;
30096;SDS011;16915;51.466;3.610;2023-02-07T06:45:35;35.60;;;11.88;;
30096;SDS011;16915;51.466;3.610;2023-02-07T06:48:01;27.23;;;10.85;;
30096;SDS011;16915;51.466;3.610;2023-02-07T06:50:26;24.63;;;12.40;;
30096;SDS011;16915;51.466;3.610;2023-02-07T06:52:52;33.35;;;12.02;;
30096;SDS011;16915;51.466;3.610;2023-02-07T06:55:18;32.55;;;11.18;;
30096;SDS011;16915;51.466;3.610;2023-02-07T06:57:43;32.75;;;12.32;;
30096;SDS011;16915;51.466;3.610;2023-02-07T07:00:09;44.72;;;12.63;;
30096;SDS011;16915;51.466;3.610;2023-02-07T07:02:35;27.23;;;12.10;;
30096;SDS011;16915;51.466;3.610;2023-02-07T07:05:00;28.05;;;11.73;;
30096;SDS011;16915;51.466;3.610;2023-02-07T07:07:26;38.38;;;13.85;;
30096;SDS011;16915;51.466;3.610;2023-02-07T07:09:51;35.70;;;13.35;;
30096;SDS011;16915;51.466;3.610;2023-02-07T07:12:17;38.80;;;13.13;;
30096;SDS011;16915;51.466;3.610;2023-02-07T07:14:43;36.35;;;13.25;;
30096;SDS011;16915;51.466;3.610;2023-02-07T07:17:08;35.53;;;12.75;;
30096;SDS011;16915;51.466;3.610;2023-02-07T07:19:34;33.10;;;12.90;;
30096;SDS011;16915;51.466;3.610;2023-02-07T07:21:59;33.28;;;11.48;;
30096;SDS011;16915;51.466;3.610;2023-02-07T07:24:25;36.47;;;13.82;;
30096;SDS011;16915;51.466;3.610;2023-02-07T07:26:51;42.00;;;13.73;;
30096;SDS011;16915;51.466;3.610;2023-02-07T07:29:17;32.72;;;12.05;;
30096;SDS011;16915;51.466;3.610;2023-02-07T07:31:43;31.88;;;13.57;;
30096;SDS011;16915;51.466;3.610;2023-02-07T07:34:09;39.95;;;14.13;;
30096;SDS011;16915;51.466;3.610;2023-02-07T07:36:35;27.23;;;13.60;;
30096;SDS011;16915;51.466;3.610;2023-02-07T07:39:00;28.27;;;11.98;;
30096;SDS011;16915;51.466;3.610;2023-02-07T07:41:26;33.75;;;12.15;;
30096;SDS011;16915;51.466;3.610;2023-02-07T07:43:51;29.55;;;13.32;;
30096;SDS011;16915;51.466;3.610;2023-02-07T07:46:17;30.88;;;12.93;;
30096;SDS011;16915;51.466;3.610;2023-02-07T07:48:43;29.75;;;12.57;;
30096;SDS011;16915;51.466;3.610;2023-02-07T07:51:08;29.20;;;12.95;;
30096;SDS011;16915;51.466;3.610;2023-02-07T07:53:34;28.63;;;13.32;;
30096;SDS011;16915;51.466;3.610;2023-02-07T07:55:59;29.10;;;13.68;;
30096;SDS011;16915;51.466;3.610;2023-02-07T07:58:25;28.58;;;13.82;;
30096;SDS011;16915;51.466;3.610;2023-02-07T08:00:51;33.78;;;14.30;;
30096;SDS011;16915;51.466;3.610;2023-02-07T08:03:17;25.30;;;13.77;;
30096;SDS011;16915;51.466;3.610;2023-02-07T08:05:44;36.92;;;15.00;;
30096;SDS011;16915;51.466;3.610;2023-02-07T08:08:11;29.15;;;13.25;;
30096;SDS011;16915;51.466;3.610;2023-02-07T08:10:39;36.05;;;14.95;;
30096;SDS011;16915;51.466;3.610;2023-02-07T08:13:05;41.83;;;15.00;;
30096;SDS011;16915;51.466;3.610;2023-02-07T08:15:31;38.22;;;15.65;;
30096;SDS011;16915;51.466;3.610;2023-02-07T08:17:56;30.20;;;14.90;;
30096;SDS011;16915;51.466;3.610;2023-02-07T08:20:22;35.17;;;15.27;;
30096;SDS011;16915;51.466;3.610;2023-02-07T08:22:48;32.33;;;15.45;;
30096;SDS011;16915;51.466;3.610;2023-02-07T08:25:13;33.28;;;15.23;;
30096;SDS011;16915;51.466;3.610;2023-02-07T08:27:39;42.60;;;16.58;;
30096;SDS011;16915;51.466;3.610;2023-02-07T08:30:05;40.85;;;17.67;;
30096;SDS011;16915;51.466;3.610;2023-02-07T08:32:32;36.47;;;16.65;;
30096;SDS011;16915;51.466;3.610;2023-02-07T08:34:58;37.55;;;17.08;;
30096;SDS011;16915;51.466;3.610;2023-02-07T08:37:23;44.83;;;17.30;;
30096;SDS011;16915;51.466;3.610;2023-02-07T08:39:49;34.42;;;17.70;;
30096;SDS011;16915;51.466;3.610;2023-02-07T08:42:17;39.85;;;17.88;;
30096;SDS011;16915;51.466;3.610;2023-02-07T08:44:46;45.97;;;17.60;;
30096;SDS011;16915;51.466;3.610;2023-02-07T08:47:13;45.92;;;18.27;;
30096;SDS011;16915;51.466;3.610;2023-02-07T08:49:39;44.92;;;19.50;;
30096;SDS011;16915;51.466;3.610;2023-02-07T08:52:05;49.00;;;19.48;;
30096;SDS011;16915;51.466;3.610;2023-02-07T08:54:31;48.42;;;19.05;;
30096;SDS011;16915;51.466;3.610;2023-02-07T08:56:57;41.28;;;19.63;;
30096;SDS011;16915;51.466;3.610;2023-02-07T08:59:22;47.67;;;18.27;;
30096;SDS011;16915;51.466;3.610;2023-02-07T09:01:48;45.50;;;22.08;;
30096;SDS011;16915;51.466;3.610;2023-02-07T09:04:15;47.92;;;19.52;;
30096;SDS011;16915;51.466;3.610;2023-02-07T09:06:40;48.30;;;20.90;;
30096;SDS011;16915;51.466;3.610;2023-02-07T09:09:06;49.65;;;20.08;;
30096;SDS011;16915;51.466;3.610;2023-02-07T09:11:32;46.65;;;20.60;;
30096;SDS011;16915;51.466;3.610;2023-02-07T09:13:58;44.95;;;20.27;;
30096;SDS011;16915;51.466;3.610;2023-02-07T09:16:23;56.15;;;21.33;;
30096;SDS011;16915;51.466;3.610;2023-02-07T09:18:49;49.88;;;21.10;;
30096;SDS011;16915;51.466;3.610;2023-02-07T09:21:16;54.10;;;21.63;;
30096;SDS011;16915;51.466;3.610;2023-02-07T09:23:42;50.80;;;21.30;;
30096;SDS011;16915;51.466;3.610;2023-02-07T09:26:18;62.58;;;21.70;;
30096;SDS011;16915;51.466;3.610;2023-02-07T09:28:45;57.40;;;21.60;;
30096;SDS011;16915;51.466;3.610;2023-02-07T09:31:11;48.88;;;21.08;;
30096;SDS011;16915;51.466;3.610;2023-02-07T09:33:38;47.85;;;20.65;;
30096;SDS011;16915;51.466;3.610;2023-02-07T09:36:04;57.40;;;21.73;;
30096;SDS011;16915;51.466;3.610;2023-02-07T09:38:30;56.50;;;22.30;;
30096;SDS011;16915;51.466;3.610;2023-02-07T09:40:56;55.03;;;22.58;;
30096;SDS011;16915;51.466;3.610;2023-02-07T09:46:16;56.57;;;22.77;;
30096;SDS011;16915;51.466;3.610;2023-02-07T09:51:30;58.15;;;23.83;;
30096;SDS011;16915;51.466;3.610;2023-02-07T09:54:44;62.58;;;24.67;;
30096;SDS011;16915;51.466;3.610;2023-02-07T09:56:50;62.35;;;24.08;;
30096;SDS011;16915;51.466;3.610;2023-02-07T09:59:40;65.70;;;26.05;;
30096;SDS011;16915;51.466;3.610;2023-02-07T10:02:14;68.10;;;25.88;;
30096;SDS011;16915;51.466;3.610;2023-02-07T10:05:04;62.75;;;25.25;;
30096;SDS011;16915;51.466;3.610;2023-02-07T10:07:40;61.90;;;25.17;;
30096;SDS011;16915;51.466;3.610;2023-02-07T10:10:18;53.10;;;23.98;;
30096;SDS011;16915;51.466;3.610;2023-02-07T10:15:49;46.10;;;20.65;;
30096;SDS011;16915;51.466;3.610;2023-02-07T10:26:30;31.63;;;16.23;;
30096;SDS011;16915;51.466;3.610;2023-02-07T10:31:52;30.02;;;16.35;;
30096;SDS011;16915;51.466;3.610;2023-02-07T10:34:20;32.47;;;17.02;;
30096;SDS011;16915;51.466;3.610;2023-02-07T10:36:52;28.90;;;15.77;;
30096;SDS011;16915;51.466;3.610;2023-02-07T10:41:45;24.38;;;15.05;;
30096;SDS011;16915;51.466;3.610;2023-02-07T10:44:20;30.02;;;15.93;;
30096;SDS011;16915;51.466;3.610;2023-02-07T10:46:49;29.38;;;14.52;;
30096;SDS011;16915;51.466;3.610;2023-02-07T10:49:25;25.35;;;14.50;;
30096;SDS011;16915;51.466;3.610;2023-02-07T10:52:03;24.23;;;14.00;;
30096;SDS011;16915;51.466;3.610;2023-02-07T10:54:58;24.77;;;14.57;;
30096;SDS011;16915;51.466;3.610;2023-02-07T10:57:26;21.92;;;13.32;;
30096;SDS011;16915;51.466;3.610;2023-02-07T10:59:56;22.98;;;14.10;;
30096;SDS011;16915;51.466;3.610;2023-02-07T11:05:00;20.30;;;12.68;;
30096;SDS011;16915;51.466;3.610;2023-02-07T11:07:29;24.55;;;13.20;;
30096;SDS011;16915;51.466;3.610;2023-02-07T11:12:44;20.65;;;12.52;;
30096;SDS011;16915;51.466;3.610;2023-02-07T11:15:15;23.65;;;13.45;;
30096;SDS011;16915;51.466;3.610;2023-02-07T11:17:46;21.05;;;12.40;;
30096;SDS011;16915;51.466;3.610;2023-02-07T11:20:55;20.63;;;12.27;;
30096;SDS011;16915;51.466;3.610;2023-02-07T11:23:11;23.42;;;12.65;;
30096;SDS011;16915;51.466;3.610;2023-02-07T11:25:42;23.20;;;11.13;;
30096;SDS011;16915;51.466;3.610;2023-02-07T11:28:29;15.50;;;10.38;;
30096;SDS011;16915;51.466;3.610;2023-02-07T11:30:57;19.13;;;10.90;;
30096;SDS011;16915;51.466;3.610;2023-02-07T11:33:27;19.98;;;10.60;;
30096;SDS011;16915;51.466;3.610;2023-02-07T11:36:06;20.95;;;11.52;;
30096;SDS011;16915;51.466;3.610;2023-02-07T11:38:40;15.48;;;10.80;;
30096;SDS011;16915;51.466;3.610;2023-02-07T11:41:17;17.35;;;10.77;;
30096;SDS011;16915;51.466;3.610;2023-02-07T11:43:52;22.38;;;10.88;;
30096;SDS011;16915;51.466;3.610;2023-02-07T11:46:20;17.08;;;10.10;;
30096;SDS011;16915;51.466;3.610;2023-02-07T11:48:48;24.67;;;13.35;;
30096;SDS011;16915;51.466;3.610;2023-02-07T11:51:18;21.13;;;13.90;;
30096;SDS011;16915;51.466;3.610;2023-02-07T11:53:48;20.25;;;13.07;;
30096;SDS011;16915;51.466;3.610;2023-02-07T11:58:53;24.73;;;14.77;;
30096;SDS011;16915;51.466;3.610;2023-02-07T12:01:22;24.80;;;16.10;;
30096;SDS011;16915;51.466;3.610;2023-02-07T12:03:53;33.92;;;17.05;;
30096;SDS011;16915;51.466;3.610;2023-02-07T12:06:39;33.42;;;17.92;;
30096;SDS011;16915;51.466;3.610;2023-02-07T12:09:16;32.17;;;18.55;;
30096;SDS011;16915;51.466;3.610;2023-02-07T12:11:44;31.67;;;18.50;;
30096;SDS011;16915;51.466;3.610;2023-02-07T12:14:28;33.55;;;18.05;;
30096;SDS011;16915;51.466;3.610;2023-02-07T12:17:06;33.90;;;18.10;;
30096;SDS011;16915;51.466;3.610;2023-02-07T12:19:48;29.35;;;18.65;;
30096;SDS011;16915;51.466;3.610;2023-02-07T12:22:20;36.83;;;18.13;;
30096;SDS011;16915;51.466;3.610;2023-02-07T12:25:32;28.42;;;17.75;;
30096;SDS011;16915;51.466;3.610;2023-02-07T12:27:49;28.98;;;16.63;;
30096;SDS011;16915;51.466;3.610;2023-02-07T12:33:13;29.00;;;17.50;;
30096;SDS011;16915;51.466;3.610;2023-02-07T12:44:23;26.48;;;17.02;;
30096;SDS011;16915;51.466;3.610;2023-02-07T12:58:13;27.73;;;17.42;;
30096;SDS011;16915;51.466;3.610;2023-02-07T13:01:05;25.70;;;16.95;;
30096;SDS011;16915;51.466;3.610;2023-02-07T13:04:04;27.10;;;17.70;;
30096;SDS011;16915;51.466;3.610;2023-02-07T13:09:35;26.75;;;17.83;;
30096;SDS011;16915;51.466;3.610;2023-02-07T13:20:08;26.90;;;17.07;;
30096;SDS011;16915;51.466;3.610;2023-02-07T13:22:53;23.83;;;16.70;;
30096;SDS011;16915;51.466;3.610;2023-02-07T13:25:23;28.20;;;17.52;;
30096;SDS011;16915;51.466;3.610;2023-02-07T13:28:20;26.55;;;16.77;;
30096;SDS011;16915;51.466;3.610;2023-02-07T13:30:54;26.30;;;17.75;;
30096;SDS011;16915;51.466;3.610;2023-02-07T13:41:14;27.50;;;16.33;;
30096;SDS011;16915;51.466;3.610;2023-02-07T13:46:37;28.08;;;17.50;;
30096;SDS011;16915;51.466;3.610;2023-02-07T13:52:17;29.20;;;17.08;;
30096;SDS011;16915;51.466;3.610;2023-02-07T13:57:52;28.77;;;17.63;;
30096;SDS011;16915;51.466;3.610;2023-02-07T14:00:57;32.10;;;17.63;;
30096;SDS011;16915;51.466;3.610;2023-02-07T14:03:30;38.95;;;19.10;;
30096;SDS011;16915;51.466;3.610;2023-02-07T14:14:26;33.83;;;16.38;;
30096;SDS011;16915;51.466;3.610;2023-02-07T14:16:58;33.15;;;17.77;;
30096;SDS011;16915;51.466;3.610;2023-02-07T14:30:08;36.03;;;15.98;;
30096;SDS011;16915;51.466;3.610;2023-02-07T14:32:38;38.88;;;16.85;;
30096;SDS011;16915;51.466;3.610;2023-02-07T14:40:21;33.00;;;15.23;;
30096;SDS011;16915;51.466;3.610;2023-02-07T14:43:05;31.45;;;15.05;;
30096;SDS011;16915;51.466;3.610;2023-02-07T14:45:58;31.10;;;14.38;;
30096;SDS011;16915;51.466;3.610;2023-02-07T14:48:29;32.97;;;15.13;;
30096;SDS011;16915;51.466;3.610;2023-02-07T14:51:03;31.85;;;14.02;;
30096;SDS011;16915;51.466;3.610;2023-02-07T14:53:42;25.60;;;10.50;;
30096;SDS011;16915;51.466;3.610;2023-02-07T14:56:22;22.13;;;11.70;;
30096;SDS011;16915;51.466;3.610;2023-02-07T14:58:55;25.92;;;11.85;;
30096;SDS011;16915;51.466;3.610;2023-02-07T15:01:23;26.70;;;11.85;;
30096;SDS011;16915;51.466;3.610;2023-02-07T15:04:03;27.85;;;12.30;;
30096;SDS011;16915;51.466;3.610;2023-02-07T15:06:38;21.33;;;9.93;;
30096;SDS011;16915;51.466;3.610;2023-02-07T15:09:18;21.60;;;10.35;;
30096;SDS011;16915;51.466;3.610;2023-02-07T15:11:47;20.13;;;10.75;;
30096;SDS011;16915;51.466;3.610;2023-02-07T15:14:22;20.83;;;10.05;;
30096;SDS011;16915;51.466;3.610;2023-02-07T15:16:53;25.92;;;10.68;;
30096;SDS011;16915;51.466;3.610;2023-02-07T15:19:21;31.40;;;11.88;;
30096;SDS011;16915;51.466;3.610;2023-02-07T15:21:57;27.55;;;12.20;;
30096;SDS011;16915;51.466;3.610;2023-02-07T15:24:33;21.92;;;10.30;;
30096;SDS011;16915;51.466;3.610;2023-02-07T15:27:06;27.15;;;12.00;;
30096;SDS011;16915;51.466;3.610;2023-02-07T15:29:42;24.10;;;11.52;;
30096;SDS011;16915;51.466;3.610;2023-02-07T15:32:20;23.33;;;10.73;;
30096;SDS011;16915;51.466;3.610;2023-02-07T15:34:55;31.05;;;12.45;;
30096;SDS011;16915;51.466;3.610;2023-02-07T15:37:22;25.02;;;10.63;;
30096;SDS011;16915;51.466;3.610;2023-02-07T15:39:51;27.38;;;10.75;;
30096;SDS011;16915;51.466;3.610;2023-02-07T15:42:18;20.33;;;9.88;;
30096;SDS011;16915;51.466;3.610;2023-02-07T15:44:48;26.98;;;10.93;;
30096;SDS011;16915;51.466;3.610;2023-02-07T15:50:01;25.17;;;11.20;;
30096;SDS011;16915;51.466;3.610;2023-02-07T15:52:44;28.48;;;12.80;;
30096;SDS011;16915;51.466;3.610;2023-02-07T15:55:20;28.67;;;12.57;;
30096;SDS011;16915;51.466;3.610;2023-02-07T15:57:59;25.63;;;12.07;;
30096;SDS011;16915;51.466;3.610;2023-02-07T16:00:27;25.25;;;11.55;;
30096;SDS011;16915;51.466;3.610;2023-02-07T16:02:59;30.05;;;11.50;;
30096;SDS011;16915;51.466;3.610;2023-02-07T16:05:29;30.10;;;12.45;;
30096;SDS011;16915;51.466;3.610;2023-02-07T16:08:01;30.38;;;12.65;;
30096;SDS011;16915;51.466;3.610;2023-02-07T16:15:55;28.00;;;13.45;;
30096;SDS011;16915;51.466;3.610;2023-02-07T16:21:41;34.05;;;13.88;;
30096;SDS011;16915;51.466;3.610;2023-02-07T16:24:10;34.53;;;14.70;;
30096;SDS011;16915;51.466;3.610;2023-02-07T16:26:40;32.15;;;13.50;;
30096;SDS011;16915;51.466;3.610;2023-02-07T16:29:06;35.40;;;14.43;;
30096;SDS011;16915;51.466;3.610;2023-02-07T16:31:32;30.05;;;14.48;;
30096;SDS011;16915;51.466;3.610;2023-02-07T16:33:58;32.03;;;14.40;;
30096;SDS011;16915;51.466;3.610;2023-02-07T16:36:24;34.08;;;14.68;;
30096;SDS011;16915;51.466;3.610;2023-02-07T16:38:50;36.30;;;15.13;;
30096;SDS011;16915;51.466;3.610;2023-02-07T16:41:21;40.30;;;14.55;;
30096;SDS011;16915;51.466;3.610;2023-02-07T16:43:56;35.15;;;15.25;;
30096;SDS011;16915;51.466;3.610;2023-02-07T16:46:23;33.15;;;14.90;;
30096;SDS011;16915;51.466;3.610;2023-02-07T16:48:48;40.78;;;15.68;;
30096;SDS011;16915;51.466;3.610;2023-02-07T16:51:14;38.70;;;15.13;;
30096;SDS011;16915;51.466;3.610;2023-02-07T16:53:40;34.13;;;15.00;;
30096;SDS011;16915;51.466;3.610;2023-02-07T16:56:07;35.92;;;14.57;;
30096;SDS011;16915;51.466;3.610;2023-02-07T16:58:39;32.92;;;15.38;;
30096;SDS011;16915;51.466;3.610;2023-02-07T17:01:04;34.47;;;14.98;;
30096;SDS011;16915;51.466;3.610;2023-02-07T17:03:30;40.10;;;15.30;;
30096;SDS011;16915;51.466;3.610;2023-02-07T17:05:56;39.13;;;15.15;;
30096;SDS011;16915;51.466;3.610;2023-02-07T17:08:22;34.45;;;14.68;;
30096;SDS011;16915;51.466;3.610;2023-02-07T17:10:58;38.25;;;15.65;;